Time;durP1;ratioP1;P1;durP2;ratioP2;P2;SDS_P1;SDS_P2;PMS_P1;PMS_P2;Temp;Humidity;BMP_temperature;BMP_pressure;BME280_temperature;BME280_humidity;BME280_pressure;Samples;Min_cycle;Max_cycle;Signal;HPM_P1;HPM_P2
2023/06/09 00:01:53;;;;;;;;;;;;;;;23.83;16.33;101569.63;5053667;28;19912;-52
2023/06/09 00:04:20;;;;;;;;;;;;;;;23.88;16.38;101568.84;5053894;28;19928;-49
2023/06/09 00:06:46;;;;;;;;;;;;;;;23.91;15.97;101585.63;5053991;28;19932;-47
2023/06/09 00:09:12;;;;;;;;;;;;;;;23.93;16.01;101582.63;5060833;28;19912;-49
2023/06/09 00:11:37;;;;;;;;;;;;;;;23.99;15.99;101586.28;5074092;28;19927;-53
2023/06/09 00:14:02;;;;;;;;;;;;;;;23.96;16.37;101590.38;5073737;28;19951;-51
2023/06/09 00:16:28;;;;;;;;;;;;;;;23.95;16.42;101592.25;5073669;28;19912;-51
2023/06/09 00:18:54;;;;;;;;;;;;;;;23.97;16.40;101597.50;5073708;28;19962;-48
2023/06/09 00:21:19;;;;;;;;;;;;;;;24.02;16.10;101596.75;5062278;28;19951;-50
2023/06/09 00:23:45;;;;;;;;;;;;;;;24.06;16.02;101601.44;5053833;28;19913;-52
2023/06/09 00:26:11;;;;;;;;;;;;;;;24.09;15.99;101603.69;5053729;28;20242;-48
2023/06/09 00:28:37;;;;;;;;;;;;;;;24.03;16.43;101601.94;5053735;28;20361;-50
2023/06/09 00:31:02;;;;;;;;;;;;;;;23.98;16.17;101601.06;5053687;28;19919;-49
2023/06/09 00:33:27;;;;;;;;;;;;;;;23.93;15.89;101601.84;5053225;28;20416;-49
2023/06/09 00:35:52;;;;;;;;;;;;;;;23.89;16.12;101607.00;5053630;28;19909;-49
2023/06/09 00:38:18;;;;;;;;;;;;;;;23.93;16.39;101601.84;5053525;28;19917;-50
2023/06/09 00:40:43;;;;;;;;;;;;;;;23.88;16.74;101607.25;5053393;28;20383;-49
2023/06/09 00:43:08;;;;;;;;;;;;;;;23.87;16.31;101611.94;5053097;28;19919;-49
2023/06/09 00:45:34;;;;;;;;;;;;;;;23.83;16.43;101612.69;5053142;28;19913;-51
2023/06/09 00:47:59;;;;;;;;;;;;;;;23.76;16.92;101619.16;5053312;28;19917;-49
2023/06/09 00:50:24;;;;;;;;;;;;;;;23.63;17.10;101619.53;5053064;28;19913;-53
2023/06/09 00:52:51;;;;;;;;;;;;;;;23.62;16.93;101617.84;5053041;28;19955;-47
2023/06/09 00:55:17;;;;;;;;;;;;;;;23.51;17.13;101621.53;5053142;28;20362;-50
2023/06/09 00:57:43;;;;;;;;;;;;;;;23.44;17.21;101623.63;5052860;28;19921;-53
2023/06/09 01:00:11;;;;;;;;;;;;;;;23.38;17.74;101628.19;5053004;28;19916;-48
2023/06/09 01:02:38;;;;;;;;;;;;;;;23.32;17.08;101631.94;5052359;28;19913;-46
2023/06/09 01:05:04;;;;;;;;;;;;;;;23.26;17.61;101631.03;5052982;28;19913;-48
2023/06/09 01:07:33;;;;;;;;;;;;;;;23.14;17.75;101622.91;5052625;28;19963;-48
2023/06/09 01:10:04;;;;;;;;;;;;;;;23.18;17.33;101626.00;5066629;28;20007;-49
2023/06/09 01:12:48;;;;;;;;;;;;;;;23.12;17.85;101636.03;5072559;28;19913;-50
2023/06/09 01:15:19;;;;;;;;;;;;;;;22.99;18.09;101633.56;5072816;28;20407;-49
2023/06/09 01:17:50;;;;;;;;;;;;;;;22.99;17.76;101636.31;5059982;28;19916;-51
2023/06/09 01:20:22;;;;;;;;;;;;;;;22.96;18.25;101639.56;5052600;28;19927;-50
2023/06/09 01:22:52;;;;;;;;;;;;;;;22.70;18.34;101633.66;5034788;28;19913;-48
2023/06/09 01:25:20;;;;;;;;;;;;;;;22.71;18.21;101648.16;5052583;28;19913;-47
2023/06/09 01:27:48;;;;;;;;;;;;;;;22.70;19.06;101647.34;5052397;28;19952;-49
2023/06/09 01:30:15;;;;;;;;;;;;;;;22.63;18.75;101648.56;5052413;28;19913;-48
2023/06/09 01:32:41;;;;;;;;;;;;;;;22.71;18.83;101653.63;5052477;28;19963;-50
2023/06/09 01:35:07;;;;;;;;;;;;;;;22.72;18.82;101650.66;5052405;28;19920;-47
2023/06/09 01:37:33;;;;;;;;;;;;;;;22.60;19.03;101653.47;5052081;28;20007;-53
2023/06/09 01:39:58;;;;;;;;;;;;;;;22.62;18.87;101658.66;5052009;28;20010;-49
2023/06/09 01:42:24;;;;;;;;;;;;;;;22.59;18.93;101661.91;5052157;28;20039;-51
2023/06/09 01:44:49;;;;;;;;;;;;;;;22.54;19.43;101670.84;5052172;28;19912;-47
2023/06/09 01:47:18;;;;;;;;;;;;;;;22.46;19.33;101673.97;5052389;28;19928;-47
2023/06/09 01:49:49;;;;;;;;;;;;;;;22.49;19.29;101673.50;5052281;28;20000;-49
2023/06/09 01:52:34;;;;;;;;;;;;;;;22.49;18.94;101678.13;5052169;28;19920;-51
2023/06/09 01:55:02;;;;;;;;;;;;;;;22.41;19.38;101682.91;5055810;28;19917;-49
2023/06/09 01:57:38;;;;;;;;;;;;;;;22.41;19.36;101682.09;5056289;28;20380;-47
2023/06/09 02:00:05;;;;;;;;;;;;;;;22.39;19.73;101678.75;5016546;28;19930;-50
2023/06/09 02:02:32;;;;;;;;;;;;;;;22.27;19.79;101683.44;5015781;28;20362;-49
2023/06/09 02:04:58;;;;;;;;;;;;;;;22.30;19.77;101685.69;5016695;28;19913;-49
2023/06/09 02:07:24;;;;;;;;;;;;;;;22.31;19.81;101688.19;5016385;28;20004;-51
2023/06/09 02:09:49;;;;;;;;;;;;;;;22.27;19.87;101695.22;5028654;28;19997;-48
2023/06/09 02:12:15;;;;;;;;;;;;;;;22.28;20.03;101694.16;5036183;28;19924;-48
2023/06/09 02:14:40;;;;;;;;;;;;;;;22.33;19.72;101690.69;5018116;28;19913;-49
2023/06/09 02:17:08;;;;;;;;;;;;;;;22.37;19.87;101694.59;5016257;28;19920;-49
2023/06/09 02:19:37;;;;;;;;;;;;;;;22.47;19.61;101697.53;5016381;28;19913;-47
2023/06/09 02:22:03;;;;;;;;;;;;;;;22.47;20.47;101702.19;5033891;28;20268;-48
2023/06/09 02:24:29;;;;;;;;;;;;;;;22.52;20.06;101703.13;5019256;28;19963;-47
2023/06/09 02:26:54;;;;;;;;;;;;;;;22.58;20.15;101707.63;5016454;28;19917;-51
2023/06/09 02:29:20;;;;;;;;;;;;;;;22.63;19.58;101712.38;5016379;28;19913;-49
2023/06/09 02:31:45;;;;;;;;;;;;;;;22.67;19.92;101705.31;5015743;28;19976;-47
2023/06/09 02:34:10;;;;;;;;;;;;;;;22.68;20.66;101711.63;5015600;28;19921;-50
2023/06/09 02:36:37;;;;;;;;;;;;;;;22.64;20.41;101718.66;5015702;28;20290;-49
2023/06/09 02:39:03;;;;;;;;;;;;;;;22.65;20.33;101723.91;5016118;28;20326;-48
2023/06/09 02:41:28;;;;;;;;;;;;;;;22.65;20.01;101728.56;5015711;28;19917;-47
2023/06/09 02:43:54;;;;;;;;;;;;;;;22.58;20.50;101739.66;5015916;28;19921;-48
2023/06/09 02:46:22;;;;;;;;;;;;;;;22.57;20.40;101738.00;5015389;28;19913;-49
2023/06/09 02:48:47;;;;;;;;;;;;;;;22.65;20.35;101732.13;5015817;28;20008;-48
2023/06/09 02:51:13;;;;;;;;;;;;;;;22.70;19.83;101748.66;5014514;28;20307;-47
2023/06/09 02:53:38;;;;;;;;;;;;;;;22.76;20.32;101746.84;5015653;28;19918;-49
2023/06/09 02:56:04;;;;;;;;;;;;;;;22.72;20.28;101753.91;5015576;28;19945;-46
2023/06/09 02:58:29;;;;;;;;;;;;;;;22.69;20.51;101746.97;5031235;28;19921;-47
2023/06/09 03:00:55;;;;;;;;;;;;;;;22.68;20.49;101750.81;5054802;28;19913;-47
2023/06/09 03:03:20;;;;;;;;;;;;;;;22.67;20.74;101756.53;5055397;28;19913;-49
2023/06/09 03:05:46;;;;;;;;;;;;;;;22.63;20.72;101766.31;5037354;28;19912;-51
2023/06/09 03:08:11;;;;;;;;;;;;;;;22.65;20.60;101764.16;5037082;28;19925;-47
2023/06/09 03:10:37;;;;;;;;;;;;;;;22.61;21.08;101767.38;5058530;28;19913;-50
2023/06/09 03:13:02;;;;;;;;;;;;;;;22.58;20.92;101777.97;5055339;28;20362;-50
2023/06/09 03:15:28;;;;;;;;;;;;;;;22.60;20.86;101779.41;5036760;28;20263;-49
2023/06/09 03:17:53;;;;;;;;;;;;;;;22.70;21.15;101783.44;5054972;28;19920;-51
2023/06/09 03:20:19;;;;;;;;;;;;;;;22.75;20.70;101783.53;5054862;28;20368;-52
2023/06/09 03:22:45;;;;;;;;;;;;;;;22.80;20.86;101781.72;5055010;28;19913;-50
2023/06/09 03:25:11;;;;;;;;;;;;;;;22.84;21.12;101790.28;5037213;28;20284;-49
2023/06/09 03:27:37;;;;;;;;;;;;;;;22.91;20.94;101792.88;5054584;28;20388;-52
2023/06/09 03:30:03;;;;;;;;;;;;;;;22.92;21.08;101789.91;5055074;28;19991;-54
2023/06/09 03:32:28;;;;;;;;;;;;;;;22.92;21.26;101802.75;5054845;28;20419;-54
2023/06/09 03:34:53;;;;;;;;;;;;;;;22.95;21.10;101799.53;5054821;28;19944;-52
2023/06/09 03:37:19;;;;;;;;;;;;;;;22.94;21.21;101803.38;5055237;28;19939;-52
2023/06/09 03:39:44;;;;;;;;;;;;;;;22.95;20.87;101797.63;5055012;28;19913;-49
2023/06/09 03:42:12;;;;;;;;;;;;;;;22.90;21.22;101797.53;5054803;28;20361;-46
2023/06/09 03:44:37;;;;;;;;;;;;;;;22.86;21.57;101806.47;5054394;28;19920;-49
2023/06/09 03:47:02;;;;;;;;;;;;;;;22.87;21.34;101800.75;5054232;28;19916;-47
2023/06/09 03:49:29;;;;;;;;;;;;;;;22.85;21.88;101805.66;5054330;28;20007;-49
2023/06/09 03:51:54;;;;;;;;;;;;;;;22.76;21.75;101804.38;5054127;28;19991;-49
2023/06/09 03:54:20;;;;;;;;;;;;;;;22.62;22.62;101812.00;5054462;28;19912;-50
2023/06/09 03:56:45;;;;;;;;;;;;;;;22.63;22.24;101808.22;5054176;28;19917;-52
2023/06/09 03:59:10;;;;;;;;;;;;;;;22.59;22.62;101812.50;5019500;28;19967;-52
2023/06/09 04:01:35;;;;;;;;;;;;;;;22.53;22.76;101810.72;5053697;28;19912;-52
2023/06/09 04:04:01;;;;;;;;;;;;;;;22.58;22.48;101819.06;5053751;28;20371;-47
2023/06/09 04:06:26;;;;;;;;;;;;;;;22.62;22.79;101822.97;5053773;28;19920;-47
2023/06/09 04:08:51;;;;;;;;;;;;;;;22.53;23.25;101829.88;5058523;28;19920;-52
2023/06/09 04:11:17;;;;;;;;;;;;;;;22.54;23.26;101832.38;5073883;28;20014;-49
2023/06/09 04:13:42;;;;;;;;;;;;;;;22.53;23.03;101829.88;5073704;28;20349;-47
2023/06/09 04:16:07;;;;;;;;;;;;;;;22.53;23.04;101838.09;5073572;28;19916;-47
2023/06/09 04:18:32;;;;;;;;;;;;;;;22.56;23.11;101841.19;5073721;28;20016;-47
2023/06/09 04:20:58;;;;;;;;;;;;;;;22.50;23.26;101847.63;5073879;28;19927;-47
2023/06/09 04:23:27;;;;;;;;;;;;;;;22.51;22.88;101841.09;5073801;28;20357;-50
2023/06/09 04:25:53;;;;;;;;;;;;;;;22.50;23.54;101850.38;5073917;28;19934;-48
2023/06/09 04:28:18;;;;;;;;;;;;;;;22.61;23.18;101846.78;5073486;28;19921;-51
2023/06/09 04:30:44;;;;;;;;;;;;;;;22.59;23.72;101845.38;5055723;28;19912;-48
2023/06/09 04:33:09;;;;;;;;;;;;;;;22.59;23.10;101846.19;5073394;28;19919;-48
2023/06/09 04:35:35;;;;;;;;;;;;;;;22.57;23.83;101851.09;5073303;28;19919;-48
2023/06/09 04:38:01;;;;;;;;;;;;;;;22.54;23.65;101853.47;5073360;28;20002;-49
2023/06/09 04:40:27;;;;;;;;;;;;;;;22.60;23.17;101856.09;5060699;28;19917;-52
2023/06/09 04:42:59;;;;;;;;;;;;;;;22.61;23.00;101855.00;5053644;28;19917;-50
2023/06/09 04:45:34;;;;;;;;;;;;;;;22.55;23.28;101863.38;5053329;28;19920;-47
2023/06/09 04:47:59;;;;;;;;;;;;;;;22.55;23.78;101864.19;5053272;28;20393;-50
2023/06/09 04:50:33;;;;;;;;;;;;;;;22.58;23.93;101869.19;5053168;28;19947;-52
2023/06/09 04:52:58;;;;;;;;;;;;;;;22.61;23.03;101868.69;5053168;28;19924;-47
2023/06/09 04:55:25;;;;;;;;;;;;;;;22.65;22.84;101869.03;5053535;28;19917;-52
2023/06/09 04:57:56;;;;;;;;;;;;;;;22.71;23.01;101864.50;5052958;28;19929;-51
2023/06/09 05:00:26;;;;;;;;;;;;;;;22.73;23.55;101865.09;5053004;28;19955;-48
2023/06/09 05:02:53;;;;;;;;;;;;;;;22.68;24.08;101875.94;5052392;28;20319;-47
2023/06/09 05:05:18;;;;;;;;;;;;;;;22.67;24.06;101883.31;5053251;28;19916;-48
2023/06/09 05:07:44;;;;;;;;;;;;;;;22.76;23.63;101872.84;5053003;28;19944;-48
2023/06/09 05:10:10;;;;;;;;;;;;;;;22.83;23.42;101870.81;5068252;28;19920;-47
2023/06/09 05:12:35;;;;;;;;;;;;;;;22.93;23.00;101875.66;5055250;28;20015;-52
2023/06/09 05:15:01;;;;;;;;;;;;;;;22.85;23.91;101885.09;5072676;28;19917;-50
2023/06/09 05:17:27;;;;;;;;;;;;;;;22.89;23.58;101877.22;5072717;28;20322;-54
2023/06/09 05:19:52;;;;;;;;;;;;;;;22.90;23.50;101885.22;5072444;28;19917;-54
2023/06/09 05:22:17;;;;;;;;;;;;;;;22.95;23.39;101876.25;5072212;28;20280;-50
2023/06/09 05:24:42;;;;;;;;;;;;;;;23.03;22.94;101886.00;5072889;28;19954;-48
2023/06/09 05:27:10;;;;;;;;;;;;;;;22.99;23.42;101886.50;5072221;28;19923;-48
2023/06/09 05:29:36;;;;;;;;;;;;;;;23.00;23.50;101887.31;5072745;28;19920;-49
2023/06/09 05:32:03;;;;;;;;;;;;;;;22.97;23.49;101891.41;5072846;28;19990;-48
2023/06/09 05:34:29;;;;;;;;;;;;;;;22.93;23.74;101892.94;5072531;28;19951;-52
2023/06/09 05:36:55;;;;;;;;;;;;;;;22.90;22.83;101893.44;5058167;28;19917;-47
2023/06/09 05:39:20;;;;;;;;;;;;;;;22.93;22.63;101900.31;5052764;28;20353;-50
2023/06/09 05:41:45;;;;;;;;;;;;;;;22.91;23.64;101906.03;5052743;28;19917;-49
2023/06/09 05:44:11;;;;;;;;;;;;;;;22.74;23.15;101905.13;5053444;28;19920;-48
2023/06/09 05:46:37;;;;;;;;;;;;;;;22.81;23.33;101903.09;5052510;28;19917;-49
2023/06/09 05:49:02;;;;;;;;;;;;;;;22.90;23.02;101911.75;5053550;28;20420;-49
2023/06/09 05:51:27;;;;;;;;;;;;;;;22.92;22.95;101904.97;5052551;28;19997;-47
2023/06/09 05:53:53;;;;;;;;;;;;;;;22.97;22.84;101904.25;5052189;28;20265;-50
2023/06/09 05:56:19;;;;;;;;;;;;;;;22.93;23.00;101901.16;5052486;28;19920;-47
2023/06/09 05:58:46;;;;;;;;;;;;;;;22.79;23.32;101911.56;5052253;28;19935;-49
2023/06/09 06:01:13;;;;;;;;;;;;;;;22.84;23.71;101905.34;5052063;28;19913;-50
2023/06/09 06:03:41;;;;;;;;;;;;;;;22.98;22.92;101911.41;5052443;28;20299;-49
2023/06/09 06:06:06;;;;;;;;;;;;;;;23.11;22.40;101910.34;5052296;28;19990;-48
2023/06/09 06:08:32;;;;;;;;;;;;;;;23.17;22.62;101915.66;5054127;28;19952;-49
2023/06/09 06:10:57;;;;;;;;;;;;;;;23.08;23.17;101910.81;5054304;28;20394;-54
2023/06/09 06:13:22;;;;;;;;;;;;;;;23.03;23.16;101918.88;5072497;28;19921;-49
2023/06/09 06:15:47;;;;;;;;;;;;;;;23.07;23.12;101918.22;5072509;28;19916;-49
2023/06/09 06:18:13;;;;;;;;;;;;;;;23.14;22.91;101920.78;5072546;28;19917;-47
2023/06/09 06:20:38;;;;;;;;;;;;;;;23.28;22.58;101916.72;5072323;28;19912;-49
2023/06/09 06:23:03;;;;;;;;;;;;;;;23.32;22.74;101920.63;5072262;28;19919;-49
2023/06/09 06:25:29;;;;;;;;;;;;;;;23.31;22.90;101923.59;5072153;28;19970;-49
2023/06/09 06:27:55;;;;;;;;;;;;;;;23.31;23.06;101929.94;5071938;28;19916;-49
2023/06/09 06:30:20;;;;;;;;;;;;;;;23.34;23.26;101931.34;5072313;28;19912;-49
2023/06/09 06:32:50;;;;;;;;;;;;;;;23.35;23.43;101938.50;5060634;28;20003;-52
2023/06/09 06:35:25;;;;;;;;;;;;;;;23.37;23.56;101948.16;5052340;28;19916;-50
2023/06/09 06:37:51;;;;;;;;;;;;;;;23.39;23.18;101939.69;5051852;28;19963;-51
2023/06/09 06:40:16;;;;;;;;;;;;;;;23.44;23.51;101937.06;5054798;28;19924;-51
2023/06/09 06:42:41;;;;;;;;;;;;;;;23.49;23.39;101933.56;5055945;28;19913;-49
2023/06/09 06:45:07;;;;;;;;;;;;;;;23.57;23.02;101939.50;5055699;28;19912;-51
2023/06/09 06:47:32;;;;;;;;;;;;;;;23.64;23.17;101933.03;5055325;28;20389;-47
2023/06/09 06:49:58;;;;;;;;;;;;;;;23.59;23.36;101933.78;5055421;28;19924;-47
2023/06/09 06:52:23;;;;;;;;;;;;;;;23.75;23.22;101932.13;5055138;28;19912;-49
2023/06/09 06:54:50;;;;;;;;;;;;;;;23.78;22.84;101932.47;5055312;28;19919;-49
2023/06/09 06:57:15;;;;;;;;;;;;;;;23.76;22.91;101936.56;5055415;28;20285;-46
2023/06/09 06:59:40;;;;;;;;;;;;;;;23.86;22.61;101933.19;5054924;28;20297;-47
2023/06/09 07:02:05;;;;;;;;;;;;;;;23.79;22.53;101927.84;5054145;28;19912;-46
2023/06/09 07:04:31;;;;;;;;;;;;;;;23.83;22.92;101933.66;5055101;28;19958;-48
2023/06/09 07:06:56;;;;;;;;;;;;;;;23.84;22.73;101929.84;5054769;28;19924;-47
2023/06/09 07:09:22;;;;;;;;;;;;;;;23.83;22.56;101937.25;5063526;28;20333;-46
2023/06/09 07:11:47;;;;;;;;;;;;;;;23.87;23.39;101932.13;5075364;28;19912;-47
2023/06/09 07:14:12;;;;;;;;;;;;;;;23.96;23.31;101928.72;5075115;28;20372;-47
2023/06/09 07:16:38;;;;;;;;;;;;;;;23.91;23.34;101933.28;5075106;28;19916;-49
2023/06/09 07:19:03;;;;;;;;;;;;;;;23.93;23.19;101931.13;5075242;28;19913;-53
2023/06/09 07:21:31;;;;;;;;;;;;;;;23.91;22.56;101933.28;5074863;28;20395;-49
2023/06/09 07:23:57;;;;;;;;;;;;;;;23.95;22.77;101926.22;5074802;28;19912;-51
2023/06/09 07:26:22;;;;;;;;;;;;;;;23.95;23.58;101931.69;5075114;28;19919;-49
2023/06/09 07:28:48;;;;;;;;;;;;;;;23.95;22.86;101923.47;5065198;28;19924;-51
2023/06/09 07:31:13;;;;;;;;;;;;;;;24.03;23.60;101922.22;5054709;28;19979;-48
2023/06/09 07:33:40;;;;;;;;;;;;;;;24.10;22.97;101925.66;5054447;28;19939;-49
2023/06/09 07:36:10;;;;;;;;;;;;;;;24.21;22.79;101921.97;5054605;28;19916;-51
2023/06/09 07:38:35;;;;;;;;;;;;;;;24.20;22.69;101919.47;5054331;28;19913;-47
2023/06/09 07:41:00;;;;;;;;;;;;;;;24.16;22.72;101919.16;5054442;28;20330;-50
2023/06/09 07:43:26;;;;;;;;;;;;;;;24.13;23.01;101915.00;5054454;28;19955;-46
2023/06/09 07:45:51;;;;;;;;;;;;;;;24.20;22.65;101914.84;5054357;28;19959;-48
2023/06/09 07:48:17;;;;;;;;;;;;;;;24.30;22.64;101912.25;5054275;28;19928;-47
2023/06/09 07:50:42;;;;;;;;;;;;;;;24.37;22.35;101914.84;5053226;28;19917;-50
2023/06/09 07:53:08;;;;;;;;;;;;;;;24.44;22.25;101915.50;5054300;28;19962;-49
2023/06/09 07:55:33;;;;;;;;;;;;;;;24.35;23.06;101914.25;5053983;28;20373;-48
2023/06/09 07:57:59;;;;;;;;;;;;;;;24.27;22.33;101920.16;5053754;28;19928;-47
2023/06/09 08:00:24;;;;;;;;;;;;;;;24.29;22.30;101923.47;5054253;28;19923;-47
2023/06/09 08:02:50;;;;;;;;;;;;;;;24.20;22.50;101914.84;5053112;28;20373;-47
2023/06/09 08:05:16;;;;;;;;;;;;;;;24.14;22.53;101921.31;5036084;28;19924;-49
2023/06/09 08:07:41;;;;;;;;;;;;;;;23.88;22.43;101928.28;5054082;28;20000;-49
2023/06/09 08:10:07;;;;;;;;;;;;;;;23.96;22.43;101919.66;5068761;28;20401;-46
2023/06/09 08:12:32;;;;;;;;;;;;;;;24.07;22.38;101918.75;5055943;28;19962;-46
2023/06/09 08:14:57;;;;;;;;;;;;;;;24.20;21.92;101922.22;5073897;28;20034;-48
2023/06/09 08:17:23;;;;;;;;;;;;;;;24.26;21.77;101924.00;5055934;28;20344;-49
2023/06/09 08:19:48;;;;;;;;;;;;;;;24.29;21.13;101920.72;5073680;28;19912;-49
2023/06/09 08:22:14;;;;;;;;;;;;;;;24.17;21.18;101914.50;5073883;28;19913;-51
2023/06/09 08:24:39;;;;;;;;;;;;;;;24.37;21.45;101923.06;5067141;28;20289;-47
2023/06/09 08:27:05;;;;;;;;;;;;;;;24.58;20.79;101926.16;5053683;28;20420;-49
2023/06/09 08:29:30;;;;;;;;;;;;;;;24.65;20.67;101926.81;5053300;28;19912;-51
2023/06/09 08:31:56;;;;;;;;;;;;;;;24.85;20.62;101927.09;5053303;28;19917;-51
2023/06/09 08:34:21;;;;;;;;;;;;;;;24.99;20.23;101915.72;5053414;28;20306;-50
2023/06/09 08:36:46;;;;;;;;;;;;;;;25.02;20.22;101923.47;5053195;28;19917;-52
2023/06/09 08:39:12;;;;;;;;;;;;;;;25.06;20.44;101928.19;5053183;28;19987;-50
2023/06/09 08:41:38;;;;;;;;;;;;;;;25.22;20.34;101922.88;5053421;28;19963;-48
2023/06/09 08:44:04;;;;;;;;;;;;;;;25.21;20.22;101922.06;5053244;28;19920;-50
2023/06/09 08:46:32;;;;;;;;;;;;;;;25.34;20.24;101920.88;5052949;28;19912;-50
2023/06/09 08:48:59;;;;;;;;;;;;;;;25.49;20.20;101918.28;5052956;28;19940;-48
2023/06/09 08:51:25;;;;;;;;;;;;;;;25.59;19.70;101914.78;5053234;28;19913;-49
2023/06/09 08:53:53;;;;;;;;;;;;;;;25.66;19.60;101912.66;5052956;28;19913;-47
2023/06/09 08:56:21;;;;;;;;;;;;;;;25.81;19.63;101917.50;5052955;28;20364;-50
2023/06/09 08:58:47;;;;;;;;;;;;;;;25.84;20.04;101916.16;5052626;28;20492;-51
2023/06/09 09:01:13;;;;;;;;;;;;;;;25.55;20.22;101908.16;5052376;28;19912;-51
2023/06/09 09:03:38;;;;;;;;;;;;;;;25.67;20.37;101905.28;5052378;28;20380;-48
2023/06/09 09:06:04;;;;;;;;;;;;;;;25.58;20.37;101909.56;5052856;28;19920;-48
2023/06/09 09:08:29;;;;;;;;;;;;;;;25.68;20.29;101913.25;5054299;28;20007;-47
2023/06/09 09:10:54;;;;;;;;;;;;;;;25.61;20.45;101914.53;5055218;28;19919;-47
2023/06/09 09:13:24;;;;;;;;;;;;;;;25.73;20.61;101906.97;5073729;28;19955;-46
2023/06/09 09:15:50;;;;;;;;;;;;;;;25.63;19.96;101910.47;5073803;28;19919;-53
2023/06/09 09:18:22;;;;;;;;;;;;;;;25.53;19.98;101910.34;5073077;28;20016;-53
2023/06/09 09:20:47;;;;;;;;;;;;;;;25.78;19.75;101911.69;5067209;28;19916;-53
2023/06/09 09:23:13;;;;;;;;;;;;;;;25.67;19.71;101906.09;5052527;28;19912;-52
2023/06/09 09:25:39;;;;;;;;;;;;;;;25.77;19.71;101915.53;5052409;28;20360;-50
2023/06/09 09:28:04;;;;;;;;;;;;;;;25.91;19.54;101908.53;5051151;28;19916;-48
2023/06/09 09:30:48;;;;;;;;;;;;;;;25.99;19.67;101902.56;5052153;28;19920;-49
2023/06/09 09:33:16;;;;;;;;;;;;;;;25.88;19.71;101914.53;5052634;28;19959;-46
2023/06/09 09:35:46;;;;;;;;;;;;;;;25.92;19.96;101898.34;5052377;28;19913;-49
2023/06/09 09:38:16;;;;;;;;;;;;;;;26.15;19.70;101908.19;5052559;28;20384;-49
2023/06/09 09:40:46;;;;;;;;;;;;;;;26.12;19.67;101908.72;5052596;28;20019;-53
2023/06/09 09:43:11;;;;;;;;;;;;;;;26.27;19.52;101906.09;5052404;28;19919;-49
2023/06/09 09:45:39;;;;;;;;;;;;;;;26.49;19.09;101889.44;5052126;28;19999;-50
2023/06/09 09:48:09;;;;;;;;;;;;;;;26.34;19.08;101898.41;5052346;28;19917;-49
2023/06/09 09:50:34;;;;;;;;;;;;;;;26.42;18.89;101900.66;5052409;28;20306;-48
2023/06/09 09:53:02;;;;;;;;;;;;;;;26.09;18.96;101893.53;5052639;28;19960;-50
2023/06/09 09:55:28;;;;;;;;;;;;;;;26.12;19.02;101897.72;5051013;28;19913;-51
2023/06/09 09:57:54;;;;;;;;;;;;;;;26.34;18.95;101897.59;5052137;28;20015;-49
2023/06/09 10:00:19;;;;;;;;;;;;;;;26.15;18.50;101899.91;5052328;28;20269;-51
2023/06/09 10:02:46;;;;;;;;;;;;;;;26.20;18.64;101899.97;5051242;28;19924;-49
2023/06/09 10:05:14;;;;;;;;;;;;;;;26.33;18.49;101894.00;5052127;28;19913;-48
2023/06/09 10:07:42;;;;;;;;;;;;;;;26.62;18.18;101880.72;5052220;28;19916;-51
2023/06/09 10:10:08;;;;;;;;;;;;;;;26.87;17.80;101878.34;5067239;28;19920;-49
2023/06/09 10:12:37;;;;;;;;;;;;;;;27.03;18.27;101878.13;5072205;28;19912;-50
2023/06/09 10:15:04;;;;;;;;;;;;;;;27.19;17.99;101884.56;5075021;28;19920;-46
2023/06/09 10:17:30;;;;;;;;;;;;;;;27.22;18.15;101875.72;5066854;28;20003;-50
2023/06/09 10:19:56;;;;;;;;;;;;;;;27.53;17.92;101873.06;5056290;28;19996;-50
2023/06/09 10:22:21;;;;;;;;;;;;;;;27.60;17.83;101868.09;5056151;28;20016;-49
2023/06/09 10:24:47;;;;;;;;;;;;;;;27.78;17.10;101869.47;5056239;28;20752;-48
2023/06/09 10:27:15;;;;;;;;;;;;;;;28.19;17.32;101866.75;5055794;28;19917;-49
2023/06/09 10:29:41;;;;;;;;;;;;;;;28.34;16.85;101865.91;5054540;28;20349;-49
2023/06/09 10:32:10;;;;;;;;;;;;;;;28.52;16.92;101853.44;5055921;28;20015;-50
2023/06/09 10:34:37;;;;;;;;;;;;;;;28.74;16.55;101866.91;5055619;28;19916;-49
2023/06/09 10:37:04;;;;;;;;;;;;;;;28.99;16.66;101856.81;5055981;28;20354;-46
2023/06/09 10:39:50;;;;;;;;;;;;;;;29.31;16.70;101853.66;5051253;28;19995;-49
2023/06/09 10:42:34;;;;;;;;;;;;;;;29.50;16.30;101852.97;5055747;28;19913;-50
2023/06/09 10:45:03;;;;;;;;;;;;;;;29.50;15.78;101852.97;5055573;28;19913;-52
2023/06/09 10:47:47;;;;;;;;;;;;;;;29.69;16.00;101842.03;5055348;28;19920;-51
2023/06/09 10:50:22;;;;;;;;;;;;;;;30.07;15.74;101850.56;5055560;28;19913;-51
2023/06/09 10:52:55;;;;;;;;;;;;;;;30.23;14.94;101851.25;5054218;28;19997;-50
2023/06/09 10:55:23;;;;;;;;;;;;;;;30.14;15.34;101842.72;5055411;28;19913;-50
2023/06/09 10:57:50;;;;;;;;;;;;;;;30.41;15.55;101833.06;5055139;28;19955;-50
2023/06/09 11:00:15;;;;;;;;;;;;;;;30.74;14.72;101836.84;5037429;28;19913;-51
2023/06/09 11:02:50;;;;;;;;;;;;;;;31.04;15.09;101838.38;5054453;28;19919;-49
2023/06/09 11:05:17;;;;;;;;;;;;;;;31.24;14.44;101833.66;5037419;28;20427;-48
2023/06/09 11:07:43;;;;;;;;;;;;;;;31.57;14.23;101829.00;5055085;28;19923;-50
2023/06/09 11:10:11;;;;;;;;;;;;;;;31.64;13.13;101826.66;5070218;28;19947;-53
2023/06/09 11:12:36;;;;;;;;;;;;;;;31.38;13.91;101817.88;5057012;28;20361;-50
2023/06/09 11:15:02;;;;;;;;;;;;;;;31.57;13.58;101822.63;5055231;28;19924;-51
2023/06/09 11:17:36;;;;;;;;;;;;;;;32.00;14.00;101820.50;5055244;28;19913;-52
2023/06/09 11:20:05;;;;;;;;;;;;;;;32.45;13.40;101817.16;5054699;28;19914;-51
2023/06/09 11:22:31;;;;;;;;;;;;;;;32.64;13.01;101819.84;5055122;28;19912;-48
2023/06/09 11:24:56;;;;;;;;;;;;;;;32.71;12.89;101820.25;5054508;28;20407;-50
2023/06/09 11:27:22;;;;;;;;;;;;;;;32.98;12.70;101822.13;5054026;28;20426;-50
2023/06/09 11:30:07;;;;;;;;;;;;;;;33.34;12.93;101824.13;5055213;28;20749;-50
2023/06/09 11:32:44;;;;;;;;;;;;;;;33.67;12.71;101821.09;5054492;28;20316;-48
2023/06/09 11:35:25;;;;;;;;;;;;;;;33.59;11.94;101821.84;5054317;28;20560;-50
2023/06/09 11:38:05;;;;;;;;;;;;;;;33.77;11.91;101808.03;5054218;28;19913;-50
2023/06/09 11:40:31;;;;;;;;;;;;;;;34.05;11.79;101809.50;5053998;28;19913;-53
2023/06/09 11:42:57;;;;;;;;;;;;;;;34.38;11.78;101808.34;5054243;28;20030;-51
2023/06/09 11:45:23;;;;;;;;;;;;;;;34.71;11.97;101800.41;5054423;28;19939;-51
2023/06/09 11:47:49;;;;;;;;;;;;;;;35.02;11.37;101803.06;5054339;28;19925;-51
2023/06/09 11:50:15;;;;;;;;;;;;;;;35.37;10.78;101810.66;5054349;28;19912;-53
2023/06/09 11:52:44;;;;;;;;;;;;;;;35.52;10.77;101787.78;5054485;28;19913;-51
2023/06/09 11:55:11;;;;;;;;;;;;;;;35.62;11.01;101798.59;5054347;28;19920;-54
2023/06/09 11:57:37;;;;;;;;;;;;;;;35.79;11.03;101789.38;5053798;28;19917;-50
2023/06/09 12:00:12;;;;;;;;;;;;;;;35.88;10.67;101802.50;5054386;28;19920;-48
2023/06/09 12:02:37;;;;;;;;;;;;;;;35.84;11.07;101788.38;5053354;28;19958;-49
2023/06/09 12:05:05;;;;;;;;;;;;;;;36.15;11.35;101790.88;5053737;28;19913;-51
2023/06/09 12:07:30;;;;;;;;;;;;;;;36.19;10.08;101797.47;5053382;28;19921;-50
2023/06/09 12:09:56;;;;;;;;;;;;;;;36.54;10.38;101786.09;5058889;28;19923;-52
2023/06/09 12:12:22;;;;;;;;;;;;;;;37.02;10.64;101783.94;5054144;28;19958;-53
2023/06/09 12:14:47;;;;;;;;;;;;;;;37.05;9.89;101785.22;5053852;28;20333;-50
2023/06/09 12:17:13;;;;;;;;;;;;;;;36.91;9.31;101786.34;5053878;28;19913;-52
2023/06/09 12:19:38;;;;;;;;;;;;;;;36.99;9.95;101782.63;5054093;28;19992;-52
2023/06/09 12:22:04;;;;;;;;;;;;;;;37.23;9.67;101781.16;5053962;28;20409;-54
2023/06/09 12:24:31;;;;;;;;;;;;;;;37.42;9.27;101783.41;5053944;28;19913;-52
2023/06/09 12:26:56;;;;;;;;;;;;;;;37.73;8.98;101770.91;5053977;28;19948;-52
2023/06/09 12:29:26;;;;;;;;;;;;;;;38.25;8.83;101770.25;5053643;28;20384;-54
2023/06/09 12:31:52;;;;;;;;;;;;;;;38.63;8.68;101768.25;5053511;28;19913;-52
2023/06/09 12:34:52;;;;;;;;;;;;;;;39.01;8.50;101769.81;5053403;28;19986;-53
2023/06/09 12:37:18;;;;;;;;;;;;;;;39.11;8.12;101767.28;5053068;28;19913;-50